createdAt,value
2019-05-07T00:00:15.694Z,68.65
2019-05-07T00:01:16.130Z,68.54
2019-05-07T00:02:16.556Z,68.21
2019-05-07T00:03:17.010Z,68.30
2019-05-07T00:04:17.452Z,68.21
2019-05-07T00:05:17.897Z,68.13
2019-05-07T00:06:18.324Z,68.03
2019-05-07T00:07:18.753Z,68.44
2019-05-07T00:08:22.936Z,68.85
2019-05-07T00:09:23.602Z,68.96
2019-05-07T00:10:24.987Z,68.96
2019-05-07T00:11:25.517Z,68.54
2019-05-07T00:12:25.945Z,69.06
2019-05-07T00:13:26.375Z,68.34
2019-05-07T00:14:26.809Z,68.85
2019-05-07T00:15:27.363Z,68.24
2019-05-07T00:16:27.837Z,68.24
2019-05-07T00:17:28.368Z,68.44
2019-05-07T00:18:28.790Z,68.85
2019-05-07T00:19:29.218Z,68.85
2019-05-07T00:20:29.661Z,68.65
2019-05-07T00:21:30.086Z,68.65
2019-05-07T00:22:32.591Z,68.96
2019-05-07T00:23:33.135Z,68.44
2019-05-07T00:24:33.574Z,68.34
2019-05-07T00:25:34.046Z,68.44
2019-05-07T00:26:34.515Z,68.44
2019-05-07T00:27:34.948Z,68.13
2019-05-07T00:28:35.378Z,67.32
2019-05-07T00:29:35.805Z,67.32
2019-05-07T00:30:36.280Z,67.83
2019-05-07T00:31:36.707Z,67.52
2019-05-07T00:32:37.176Z,67.62
2019-05-07T00:33:37.614Z,68.13
2019-05-07T00:34:38.117Z,67.93
2019-05-07T00:35:38.562Z,67.41
2019-05-07T00:36:38.998Z,67.52
2019-05-07T00:37:39.425Z,67.72
2019-05-07T00:38:39.923Z,68.13
2019-05-07T00:39:42.423Z,68.13
2019-05-07T00:40:44.073Z,67.93
2019-05-07T00:41:44.518Z,68.34
2019-05-07T00:42:44.965Z,68.34
2019-05-07T00:43:45.408Z,67.41
2019-05-07T00:44:45.841Z,67.62
2019-05-07T00:45:46.293Z,67.72
2019-05-07T00:46:46.723Z,67.62
2019-05-07T00:47:47.171Z,67.52
2019-05-07T00:48:47.597Z,68.03
2019-05-07T00:49:48.025Z,67.83
2019-05-07T00:50:48.467Z,67.93
2019-05-07T00:51:48.893Z,67.62
2019-05-07T00:52:49.441Z,67.32
2019-05-07T00:53:51.934Z,67.52
2019-05-07T00:54:53.138Z,67.52
2019-05-07T00:55:53.631Z,67.62
2019-05-07T00:56:54.069Z,67.41
2019-05-07T00:57:54.505Z,67.41
2019-05-07T00:58:54.932Z,67.41
2019-05-07T00:59:55.359Z,68.13
2019-05-07T01:00:55.807Z,68.24
2019-05-07T01:01:56.243Z,67.72
2019-05-07T01:02:56.680Z,67.72
2019-05-07T01:03:57.126Z,67.62
2019-05-07T01:04:57.555Z,67.41
2019-05-07T01:05:58.012Z,68.03
2019-05-07T01:06:58.456Z,67.72
2019-05-07T01:07:58.892Z,67.52
2019-05-07T01:08:59.332Z,67.52
2019-05-07T01:10:02.019Z,67.32
2019-05-07T01:11:02.715Z,67.62
2019-05-07T01:12:03.297Z,67.52
2019-05-07T01:13:03.730Z,67.72
2019-05-07T01:14:04.154Z,67.83
2019-05-07T01:15:04.639Z,67.32
2019-05-07T01:16:05.089Z,67.41
2019-05-07T01:17:05.527Z,68.06
2019-05-07T01:18:05.998Z,68.37
2019-05-07T01:19:06.430Z,68.65
2019-05-07T01:20:06.863Z,68.16
2019-05-07T01:21:07.318Z,68.99
2019-05-07T01:22:07.835Z,68.88
2019-05-07T01:23:09.295Z,68.88
2019-05-07T01:24:09.728Z,69.09
2019-05-07T01:25:10.161Z,68.78
2019-05-07T01:26:12.462Z,68.68
2019-05-07T01:27:13.005Z,68.78
2019-05-07T01:28:13.527Z,68.78
2019-05-07T01:29:13.981Z,68.78
2019-05-07T01:30:15.490Z,68.88
2019-05-07T01:31:15.944Z,68.88
2019-05-07T01:32:16.434Z,68.78
2019-05-07T01:33:16.895Z,68.78
2019-05-07T01:34:17.888Z,68.68
2019-05-07T01:35:18.319Z,68.88
2019-05-07T01:36:19.909Z,69.09
2019-05-07T01:37:20.336Z,68.99
2019-05-07T01:38:22.875Z,68.68
2019-05-07T01:39:23.420Z,68.65
2019-05-07T01:40:23.961Z,68.75
2019-05-07T01:41:24.410Z,68.85
2019-05-07T01:42:24.902Z,68.96
2019-05-07T01:43:25.334Z,68.99
2019-05-07T01:44:25.836Z,68.88
2019-05-07T01:45:26.265Z,68.75
2019-05-07T01:46:26.828Z,68.65
2019-05-07T01:47:27.267Z,68.65
2019-05-07T01:48:27.724Z,68.85
2019-05-07T01:49:28.265Z,68.99
2019-05-07T01:50:32.221Z,68.88
2019-05-07T01:51:32.847Z,68.78
2019-05-07T01:52:34.392Z,68.88
2019-05-07T01:53:34.811Z,68.85
2019-05-07T01:54:35.237Z,68.78
2019-05-07T01:55:35.661Z,68.78
2019-05-07T01:56:36.102Z,68.99
2019-05-07T01:57:36.526Z,69.19
2019-05-07T01:58:36.965Z,69.09
2019-05-07T01:59:39.458Z,69.19
2019-05-07T02:00:42.217Z,69.09
2019-05-07T02:01:43.144Z,69.19
2019-05-07T02:02:43.580Z,69.70
2019-05-07T02:03:44.083Z,69.81
2019-05-07T02:04:44.519Z,69.91
2019-05-07T02:05:45.015Z,69.40
2019-05-07T02:06:45.477Z,69.40
2019-05-07T02:07:45.914Z,69.40
2019-05-07T02:08:46.373Z,69.40
2019-05-07T02:09:46.804Z,69.19
2019-05-07T02:10:47.231Z,69.19
2019-05-07T02:11:47.791Z,69.50
2019-05-07T02:12:48.235Z,69.50
2019-05-07T02:13:48.864Z,69.94
2019-05-07T02:14:49.291Z,69.50
2019-05-07T02:16:00.231Z,69.29
2019-05-07T02:16:56.218Z,69.32
2019-05-07T02:17:56.671Z,69.43
2019-05-07T02:18:57.101Z,69.29
2019-05-07T02:19:57.619Z,69.32
2019-05-07T02:20:58.083Z,69.19
2019-05-07T02:21:58.584Z,69.23
2019-05-07T02:22:59.027Z,69.32
2019-05-07T02:24:00.501Z,69.23
2019-05-07T02:25:03.124Z,69.43
2019-05-07T02:26:03.897Z,69.43
2019-05-07T02:27:04.349Z,69.32
2019-05-07T02:28:04.836Z,69.32
2019-05-07T02:29:05.293Z,69.32
2019-05-07T02:30:05.738Z,69.23
2019-05-07T02:31:06.178Z,69.23
2019-05-07T02:32:06.632Z,69.32
2019-05-07T02:33:07.071Z,69.23
2019-05-07T02:34:07.504Z,69.12
2019-05-07T02:35:07.960Z,69.23
2019-05-07T02:36:08.469Z,69.23
2019-05-07T02:37:08.929Z,69.23
2019-05-07T02:38:09.395Z,69.56
2019-05-07T02:39:12.630Z,69.43
2019-05-07T02:40:14.213Z,69.43
2019-05-07T02:41:14.793Z,69.36
2019-05-07T02:42:15.250Z,69.23
2019-05-07T02:43:15.691Z,69.26
2019-05-07T02:44:16.134Z,69.46
2019-05-07T02:45:16.591Z,69.26
2019-05-07T02:46:26.053Z,69.26
2019-05-07T02:47:23.714Z,69.15
2019-05-07T02:48:24.286Z,69.05
2019-05-07T02:49:24.730Z,69.15
2019-05-07T02:50:25.173Z,69.09
2019-05-07T02:51:25.604Z,70.01
2019-05-07T02:52:26.051Z,69.18
2019-05-07T02:53:26.480Z,69.18
2019-05-07T02:54:26.912Z,69.18
2019-05-07T02:55:27.345Z,70.21
2019-05-07T02:56:27.779Z,68.98
2019-05-07T02:57:28.243Z,69.18
2019-05-07T02:58:28.760Z,69.18
2019-05-07T02:59:29.191Z,70.11
2019-05-07T03:00:29.629Z,70.11
2019-05-07T03:01:30.066Z,70.42
2019-05-07T03:02:35.511Z,69.90
2019-05-07T03:03:36.081Z,70.21
2019-05-07T03:04:36.514Z,70.32
2019-05-07T03:05:38.000Z,70.32
2019-05-07T03:06:38.454Z,70.01
2019-05-07T03:07:38.984Z,69.70
2019-05-07T03:08:39.436Z,69.80
2019-05-07T03:09:42.856Z,69.80
2019-05-07T03:10:43.871Z,70.32
2019-05-07T03:11:44.410Z,69.73
2019-05-07T03:12:44.878Z,69.70
2019-05-07T03:13:45.434Z,69.73
2019-05-07T03:14:45.872Z,69.49
2019-05-07T03:15:47.392Z,69.49
2019-05-07T03:16:49.360Z,69.53
2019-05-07T03:17:53.563Z,69.73
2019-05-07T03:18:54.292Z,69.63
2019-05-07T03:19:54.799Z,69.84
2019-05-07T03:20:55.255Z,69.87
2019-05-07T03:21:55.723Z,69.94
2019-05-07T03:22:56.182Z,70.14
2019-05-07T03:23:56.766Z,70.35
2019-05-07T03:24:57.195Z,70.04
2019-05-07T03:25:57.699Z,70.66
2019-05-07T03:26:58.134Z,70.25
2019-05-07T03:27:58.672Z,70.04
2019-05-07T03:28:59.104Z,70.04
2019-05-07T03:30:03.856Z,70.66
2019-05-07T03:31:06.157Z,70.45
2019-05-07T03:32:06.992Z,70.14
2019-05-07T03:33:07.769Z,70.28
2019-05-07T03:34:08.508Z,70.25
2019-05-07T03:35:08.983Z,70.28
2019-05-07T03:36:09.545Z,70.25
2019-05-07T03:37:13.308Z,70.25
2019-05-07T03:38:14.163Z,70.56
2019-05-07T03:39:14.865Z,70.14
2019-05-07T03:40:15.416Z,70.04
2019-05-07T03:41:15.862Z,70.25
2019-05-07T03:42:16.364Z,70.04
2019-05-07T03:43:16.887Z,70.25
2019-05-07T03:44:17.369Z,70.14
2019-05-07T03:45:17.798Z,70.04
2019-05-07T03:46:18.328Z,70.56
2019-05-07T03:47:18.802Z,70.25
2019-05-07T03:48:19.357Z,70.21
2019-05-07T03:49:22.058Z,70.35
2019-05-07T03:50:23.295Z,70.56
2019-05-07T03:51:24.004Z,70.25
2019-05-07T03:52:24.758Z,70.25
2019-05-07T03:53:25.231Z,71.28
2019-05-07T03:54:25.735Z,71.07
2019-05-07T03:55:26.170Z,70.86
2019-05-07T03:56:33.010Z,71.20
2019-05-07T03:57:33.809Z,71.04
2019-05-07T03:58:34.481Z,70.66
2019-05-07T03:59:34.919Z,70.66
2019-05-07T04:00:35.398Z,71.07
2019-05-07T04:01:35.834Z,70.56
2019-05-07T04:02:36.367Z,70.66
2019-05-07T04:03:36.814Z,70.86
2019-05-07T04:04:37.372Z,70.25
2019-05-07T04:05:37.806Z,70.52
2019-05-07T04:06:38.307Z,70.32
2019-05-07T04:07:38.765Z,70.32
2019-05-07T04:08:43.368Z,70.45
2019-05-07T04:09:44.112Z,70.25
2019-05-07T04:10:44.799Z,70.25
2019-05-07T04:11:45.247Z,70.97
2019-05-07T04:12:45.769Z,71.24
2019-05-07T04:13:46.205Z,70.86
2019-05-07T04:14:46.655Z,70.62
2019-05-07T04:15:47.086Z,71.04
2019-05-07T04:16:47.522Z,71.17
2019-05-07T04:17:48.016Z,70.86
2019-05-07T04:18:48.452Z,70.73
2019-05-07T04:19:48.898Z,70.86
2019-05-07T04:20:49.424Z,70.94
2019-05-07T04:21:53.122Z,70.83
2019-05-07T04:22:53.995Z,71.04
2019-05-07T04:23:54.429Z,70.73
2019-05-07T04:24:54.856Z,70.62
2019-05-07T04:25:55.301Z,70.62
2019-05-07T04:26:55.737Z,70.21
2019-05-07T04:27:56.198Z,70.21
2019-05-07T04:28:56.643Z,71.34
2019-05-07T04:29:58.192Z,70.62
2019-05-07T04:30:58.633Z,71.04
2019-05-07T04:31:59.100Z,70.83
2019-05-07T04:32:59.565Z,70.42
2019-05-07T04:34:00.000Z,70.21
2019-05-07T04:35:03.567Z,70.52
2019-05-07T04:36:04.501Z,70.39
2019-05-07T04:37:04.986Z,70.28
2019-05-07T04:38:06.942Z,70.73
2019-05-07T04:39:07.795Z,70.01
2019-05-07T04:40:08.266Z,70.42
2019-05-07T04:41:08.705Z,70.39
2019-05-07T04:42:09.146Z,70.49
2019-05-07T04:43:09.600Z,70.08
2019-05-07T04:44:10.048Z,69.77
2019-05-07T04:45:13.391Z,70.08
2019-05-07T04:46:14.617Z,69.56
2019-05-07T04:47:32.998Z,69.46
2019-05-07T04:48:23.358Z,69.67
2019-05-07T04:49:24.231Z,69.36
2019-05-07T04:50:37.802Z,69.67
2019-05-07T04:51:33.574Z,69.67
2019-05-07T04:52:34.187Z,69.67
2019-05-07T04:53:34.637Z,69.56
2019-05-07T04:54:35.085Z,69.56
2019-05-07T04:55:43.026Z,69.56
2019-05-07T04:56:43.971Z,69.43
2019-05-07T04:57:44.577Z,69.43
2019-05-07T04:58:45.029Z,69.32
2019-05-07T04:59:45.471Z,69.64
2019-05-07T05:00:45.923Z,70.04
2019-05-07T05:01:46.455Z,69.64
2019-05-07T05:02:46.882Z,69.94
2019-05-07T05:03:47.335Z,70.25
2019-05-07T05:04:47.806Z,70.04
2019-05-07T05:05:48.243Z,70.04
2019-05-07T05:06:48.680Z,70.04
2019-05-07T05:07:49.115Z,69.94
2019-05-07T05:08:53.248Z,70.36
2019-05-07T05:09:55.978Z,70.36
2019-05-07T05:10:56.450Z,70.46
2019-05-07T05:11:56.886Z,70.12
2019-05-07T05:12:58.426Z,70.15
2019-05-07T05:13:58.876Z,69.94
2019-05-07T05:15:02.156Z,69.81
2019-05-07T05:16:02.692Z,70.01
2019-05-07T05:17:04.170Z,70.22
2019-05-07T05:18:04.626Z,70.01
2019-05-07T05:19:05.065Z,68.99
2019-05-07T05:20:05.493Z,68.99
2019-05-07T05:21:06.036Z,69.91
2019-05-07T05:22:06.470Z,68.88
2019-05-07T05:23:06.897Z,69.91
2019-05-07T05:24:07.435Z,68.85
2019-05-07T05:25:07.863Z,69.09
2019-05-07T05:26:08.320Z,68.99
2019-05-07T05:27:08.763Z,69.29
2019-05-07T05:28:12.399Z,69.29
2019-05-07T05:29:12.931Z,68.99
2019-05-07T05:30:14.393Z,69.19
2019-05-07T05:31:14.837Z,68.99
2019-05-07T05:32:15.265Z,70.53
2019-05-07T05:33:15.705Z,69.09
2019-05-07T05:34:16.147Z,69.09
2019-05-07T05:35:16.573Z,68.99
2019-05-07T05:36:17.003Z,69.91
2019-05-07T05:37:17.451Z,68.99
2019-05-07T05:38:17.930Z,68.88
2019-05-07T05:39:18.385Z,69.19
2019-05-07T05:40:18.822Z,69.06
2019-05-07T05:41:19.271Z,69.06
2019-05-07T05:42:19.707Z,69.06
2019-05-07T05:43:22.222Z,69.16
2019-05-07T05:44:22.965Z,69.37
2019-05-07T05:45:23.449Z,69.37
2019-05-07T05:46:24.055Z,69.37
2019-05-07T05:47:24.489Z,69.16
2019-05-07T05:48:24.916Z,69.16
2019-05-07T05:49:25.363Z,69.37
2019-05-07T05:50:25.799Z,69.16
2019-05-07T05:51:26.239Z,69.26
2019-05-07T05:52:26.692Z,69.37
2019-05-07T05:53:27.121Z,69.33
2019-05-07T05:54:27.565Z,69.33
2019-05-07T05:55:28.024Z,69.23
2019-05-07T05:56:29.486Z,69.37
2019-05-07T05:57:32.120Z,69.43
2019-05-07T05:58:32.758Z,69.43
2019-05-07T05:59:48.107Z,69.43
2019-05-07T06:00:39.603Z,69.54
2019-05-07T06:01:42.619Z,69.54
2019-05-07T06:02:44.071Z,69.02
2019-05-07T06:03:44.667Z,69.43
2019-05-07T06:04:45.153Z,69.64
2019-05-07T06:05:45.597Z,68.72
2019-05-07T06:06:46.029Z,68.82
2019-05-07T06:07:46.472Z,69.02
2019-05-07T06:08:46.897Z,69.64
2019-05-07T06:09:47.350Z,69.13
2019-05-07T06:10:47.784Z,69.13
2019-05-07T06:11:48.236Z,69.74
2019-05-07T06:12:48.669Z,69.43
2019-05-07T06:13:49.089Z,69.54
2019-05-07T06:14:49.540Z,69.74
2019-05-07T06:15:52.076Z,68.79
2019-05-07T06:16:52.724Z,68.72
2019-05-07T06:17:53.178Z,68.79
2019-05-07T06:18:53.619Z,68.79
2019-05-07T06:19:54.074Z,68.79
2019-05-07T06:20:54.502Z,68.89
2019-05-07T06:21:54.930Z,68.79
2019-05-07T06:22:55.377Z,68.35
2019-05-07T06:23:55.812Z,68.24
2019-05-07T06:24:56.599Z,68.24
2019-05-07T06:25:57.136Z,68.65
2019-05-07T06:26:57.572Z,68.24
2019-05-07T06:27:58.002Z,68.35
2019-05-07T06:28:58.432Z,68.24
2019-05-07T06:29:58.919Z,68.35
2019-05-07T06:30:59.424Z,68.35
2019-05-07T06:31:59.882Z,68.45
2019-05-07T06:33:02.735Z,68.24
2019-05-07T06:34:03.329Z,68.35
2019-05-07T06:35:03.799Z,68.76
2019-05-07T06:36:04.245Z,68.24
2019-05-07T06:37:04.680Z,68.45
2019-05-07T06:38:05.134Z,68.96
2019-05-07T06:39:05.590Z,68.86
2019-05-07T06:40:06.117Z,68.86
2019-05-07T06:41:06.548Z,68.76
2019-05-07T06:42:06.988Z,68.76
2019-05-07T06:43:07.419Z,68.55
2019-05-07T06:44:07.848Z,68.65
2019-05-07T06:45:08.301Z,68.55
2019-05-07T06:46:08.735Z,68.65
2019-05-07T06:47:09.176Z,68.65
2019-05-07T06:48:09.647Z,68.65
2019-05-07T06:49:10.084Z,68.68
2019-05-07T06:50:12.538Z,68.86
2019-05-07T06:51:13.044Z,69.68
2019-05-07T06:52:13.562Z,69.47
2019-05-07T06:53:14.003Z,69.57
2019-05-07T06:54:14.508Z,69.06
2019-05-07T06:55:14.957Z,69.06
2019-05-07T06:56:15.437Z,68.52
2019-05-07T06:57:15.877Z,68.86
2019-05-07T06:58:16.367Z,68.65
2019-05-07T06:59:16.807Z,68.73
2019-05-07T07:00:17.246Z,68.76
2019-05-07T07:01:17.724Z,68.83
2019-05-07T07:02:18.417Z,68.73
2019-05-07T07:03:18.849Z,68.83
2019-05-07T07:04:19.273Z,68.62
2019-05-07T07:05:25.339Z,68.52
2019-05-07T07:06:27.335Z,69.13
2019-05-07T07:07:33.922Z,68.52
2019-05-07T07:08:34.188Z,68.41
2019-05-07T07:09:34.617Z,68.28
2019-05-07T07:10:35.066Z,68.32
2019-05-07T07:11:35.568Z,68.62
2019-05-07T07:12:36.029Z,68.21
2019-05-07T07:13:36.558Z,68.93
2019-05-07T07:14:36.990Z,68.93
2019-05-07T07:15:37.450Z,68.93
2019-05-07T07:16:37.911Z,68.41
2019-05-07T07:17:38.371Z,69.03
2019-05-07T07:18:49.550Z,69.03
2019-05-07T07:19:46.264Z,68.93
2019-05-07T07:20:48.646Z,68.69
2019-05-07T07:21:49.178Z,68.79
2019-05-07T07:22:49.602Z,68.79
2019-05-07T07:23:52.391Z,68.38
2019-05-07T07:24:53.193Z,68.18
2019-05-07T07:25:53.666Z,68.18
2019-05-07T07:26:59.079Z,68.49
2019-05-07T07:27:59.513Z,68.28
2019-05-07T07:29:01.964Z,68.69
2019-05-07T07:30:02.590Z,68.69
2019-05-07T07:31:03.039Z,68.08
2019-05-07T07:32:03.459Z,67.36
2019-05-07T07:33:03.899Z,67.40
2019-05-07T07:34:04.332Z,67.26
2019-05-07T07:35:04.769Z,67.26
2019-05-07T07:36:05.221Z,67.43
2019-05-07T07:37:09.820Z,67.46
2019-05-07T07:38:12.097Z,67.77
2019-05-07T07:39:12.800Z,67.67
2019-05-07T07:40:13.298Z,67.54
2019-05-07T07:41:13.804Z,67.54
2019-05-07T07:42:14.237Z,66.99
2019-05-07T07:43:14.680Z,66.99
2019-05-07T07:44:15.134Z,67.40
2019-05-07T07:45:15.585Z,67.10
2019-05-07T07:46:16.647Z,67.50
2019-05-07T07:47:17.210Z,67.16
2019-05-07T07:48:17.637Z,67.19
2019-05-07T07:49:18.088Z,66.96
2019-05-07T07:50:18.559Z,66.86
2019-05-07T07:51:19.115Z,66.45
2019-05-07T07:52:22.872Z,66.96
2019-05-07T07:53:23.458Z,66.86
2019-05-07T07:54:23.887Z,66.83
2019-05-07T07:55:24.374Z,66.52
2019-05-07T07:56:24.806Z,66.55
2019-05-07T07:57:25.234Z,66.25
2019-05-07T07:58:25.667Z,66.55
2019-05-07T07:59:26.099Z,66.42
2019-05-07T08:00:29.813Z,66.31
2019-05-07T08:01:32.915Z,66.01
2019-05-07T08:02:33.467Z,66.11
2019-05-07T08:03:41.859Z,65.60
2019-05-07T08:04:42.684Z,65.40
2019-05-07T08:05:59.674Z,65.91
2019-05-07T08:07:00.126Z,65.60
2019-05-07T08:08:02.299Z,65.50
2019-05-07T08:09:02.841Z,65.70
2019-05-07T08:10:03.264Z,64.89
2019-05-07T08:11:03.722Z,65.70
2019-05-07T08:12:04.332Z,65.70
2019-05-07T08:13:05.098Z,65.47
2019-05-07T08:14:05.538Z,65.06
2019-05-07T08:15:17.234Z,64.99
2019-05-07T08:16:13.058Z,65.16
2019-05-07T08:17:13.546Z,65.06
2019-05-07T08:18:14.313Z,65.26
2019-05-07T08:19:21.675Z,64.22
2019-05-07T08:20:22.214Z,64.52
2019-05-07T08:21:22.965Z,64.62
2019-05-07T08:22:23.426Z,64.59
2019-05-07T08:23:23.868Z,64.28
2019-05-07T08:24:24.365Z,64.28
2019-05-07T08:25:24.917Z,64.79
2019-05-07T08:26:25.411Z,64.28
2019-05-07T08:27:25.954Z,63.85
2019-05-07T08:28:26.397Z,63.54
2019-05-07T08:29:26.993Z,63.85
2019-05-07T08:30:27.429Z,64.12
2019-05-07T08:31:27.985Z,63.51
2019-05-07T08:32:28.424Z,63.61
2019-05-07T08:33:28.986Z,63.51
2019-05-07T08:34:29.442Z,63.31
2019-05-07T08:35:34.925Z,63.00
2019-05-07T08:36:35.422Z,62.90
2019-05-07T08:37:36.983Z,63.00
2019-05-07T08:38:37.433Z,62.90
2019-05-07T08:39:37.915Z,63.10
2019-05-07T08:40:38.345Z,62.97
2019-05-07T08:41:38.906Z,62.56
2019-05-07T08:42:39.336Z,62.77
2019-05-07T08:43:39.887Z,63.07
2019-05-07T08:44:40.320Z,62.87
2019-05-07T08:45:43.019Z,62.56
2019-05-07T08:46:43.711Z,62.80
2019-05-07T08:47:44.235Z,62.16
2019-05-07T08:48:44.672Z,61.68
2019-05-07T08:49:45.263Z,61.78
2019-05-07T08:50:45.733Z,61.98
2019-05-07T08:51:46.258Z,61.88
2019-05-07T08:52:46.767Z,61.37
2019-05-07T08:53:47.338Z,62.18
2019-05-07T08:54:47.796Z,61.91
2019-05-07T08:55:52.582Z,62.39
2019-05-07T08:56:53.169Z,62.42
2019-05-07T08:57:55.776Z,62.32
2019-05-07T08:58:56.237Z,62.42
2019-05-07T09:00:01.025Z,61.91
2019-05-07T09:01:03.069Z,61.71
2019-05-07T09:02:03.847Z,61.71
2019-05-07T09:03:04.312Z,61.73
2019-05-07T09:04:06.961Z,61.71
2019-05-07T09:05:09.201Z,62.14
2019-05-07T09:06:11.716Z,61.71
2019-05-07T09:07:13.081Z,61.91
2019-05-07T09:08:13.747Z,61.91
2019-05-07T09:09:14.223Z,61.47
2019-05-07T09:10:14.779Z,60.86
2019-05-07T09:11:15.286Z,61.16
2019-05-07T09:12:15.835Z,61.57
2019-05-07T09:13:16.288Z,60.73
2019-05-07T09:14:16.855Z,60.73
2019-05-07T09:15:17.314Z,60.93
2019-05-07T09:16:18.869Z,60.91
2019-05-07T09:17:19.324Z,60.30
2019-05-07T09:18:19.894Z,59.99
2019-05-07T09:19:25.307Z,59.78
2019-05-07T09:20:25.814Z,60.06
2019-05-07T09:21:26.309Z,60.24
2019-05-07T09:22:26.864Z,59.53
2019-05-07T09:23:27.340Z,59.22
2019-05-07T09:24:27.891Z,58.58
2019-05-07T09:25:28.349Z,57.97
2019-05-07T09:26:28.962Z,56.82
2019-05-07T09:27:29.412Z,57.23
2019-05-07T09:28:29.956Z,57.23
2019-05-07T09:29:32.244Z,56.49
2019-05-07T09:30:32.945Z,56.90
2019-05-07T09:31:33.416Z,56.49
2019-05-07T09:32:33.997Z,57.10
2019-05-07T09:33:34.438Z,56.87
2019-05-07T09:34:35.023Z,56.57
2019-05-07T09:35:35.470Z,56.70
2019-05-07T09:36:36.107Z,56.67
2019-05-07T09:37:36.539Z,57.41
2019-05-07T09:38:37.093Z,56.90
2019-05-07T09:39:37.547Z,56.70
2019-05-07T09:40:38.128Z,55.38
2019-05-07T09:41:38.598Z,55.27
2019-05-07T09:42:39.159Z,55.07
2019-05-07T09:43:39.596Z,56.01
2019-05-07T09:44:40.100Z,54.90
2019-05-07T09:45:42.112Z,54.79
2019-05-07T09:46:43.924Z,54.90
2019-05-07T09:47:46.677Z,54.72
2019-05-07T09:48:47.129Z,54.41
2019-05-07T09:50:00.980Z,54.92
2019-05-07T09:50:54.026Z,55.05
2019-05-07T09:51:54.587Z,54.94
2019-05-07T09:52:55.064Z,55.12
2019-05-07T09:53:55.510Z,55.12
2019-05-07T09:54:55.981Z,54.64
2019-05-07T09:55:56.449Z,55.25
2019-05-07T09:56:56.937Z,55.15
2019-05-07T09:57:57.380Z,55.38
2019-05-07T09:58:57.914Z,55.48
2019-05-07T09:59:58.365Z,55.79
2019-05-07T10:00:58.808Z,55.79
2019-05-07T10:01:59.301Z,56.29
2019-05-07T10:02:59.741Z,56.60
2019-05-07T10:04:02.409Z,56.90
2019-05-07T10:05:03.158Z,55.68
2019-05-07T10:06:03.618Z,55.48
2019-05-07T10:07:04.081Z,55.79
2019-05-07T10:08:04.528Z,55.79
2019-05-07T10:09:04.976Z,55.89
2019-05-07T10:10:05.438Z,55.89
2019-05-07T10:11:05.892Z,55.99
2019-05-07T10:12:06.369Z,55.20
2019-05-07T10:13:06.834Z,54.87
2019-05-07T10:14:07.286Z,55.18
2019-05-07T10:15:07.864Z,56.09
2019-05-07T10:16:08.330Z,55.15
2019-05-07T10:17:08.801Z,55.15
2019-05-07T10:18:09.316Z,55.12
2019-05-07T10:19:09.766Z,54.82
2019-05-07T10:20:19.313Z,53.47
2019-05-07T10:21:16.632Z,53.47
2019-05-07T10:22:17.114Z,53.04
2019-05-07T10:23:17.580Z,53.02
2019-05-07T10:24:18.027Z,53.52
2019-05-07T10:25:18.501Z,53.19
2019-05-07T10:26:18.946Z,52.97
2019-05-07T10:27:19.439Z,52.53
2019-05-07T10:28:19.903Z,52.94
2019-05-07T10:29:20.366Z,53.04
2019-05-07T10:30:21.856Z,52.03
2019-05-07T10:31:22.456Z,51.93
2019-05-07T10:32:22.923Z,52.03
2019-05-07T10:33:23.380Z,52.03
2019-05-07T10:34:23.839Z,50.99
2019-05-07T10:35:24.493Z,50.59
2019-05-07T10:36:24.961Z,50.89
2019-05-07T10:37:25.460Z,50.59
2019-05-07T10:38:25.905Z,50.05
2019-05-07T10:39:26.385Z,50.13
2019-05-07T10:40:26.851Z,50.03
2019-05-07T10:41:27.355Z,50.11
2019-05-07T10:42:27.820Z,48.87
2019-05-07T10:43:28.261Z,50.09
2019-05-07T10:44:28.715Z,49.88
2019-05-07T10:45:29.171Z,49.38
2019-05-07T10:46:31.809Z,49.48
2019-05-07T10:47:32.474Z,48.97
2019-05-07T10:48:32.923Z,49.78
2019-05-07T10:49:33.384Z,49.07
2019-05-07T10:50:38.981Z,49.58
2019-05-07T10:51:42.418Z,49.05
2019-05-07T10:52:43.141Z,48.85
2019-05-07T10:53:43.777Z,48.85
2019-05-07T10:54:56.865Z,48.85
2019-05-07T10:55:50.658Z,48.44
2019-05-07T10:56:52.481Z,48.52
2019-05-07T10:57:53.036Z,48.62
2019-05-07T10:58:53.496Z,48.62
2019-05-07T10:59:53.935Z,48.52
2019-05-07T11:00:54.393Z,48.65
2019-05-07T11:01:54.911Z,49.35
2019-05-07T11:02:55.385Z,49.55
2019-05-07T11:03:55.828Z,49.07
2019-05-07T11:04:56.270Z,49.05
2019-05-07T11:05:56.792Z,49.86
2019-05-07T11:06:57.262Z,49.76
2019-05-07T11:07:57.731Z,49.96
2019-05-07T11:08:58.174Z,49.25
2019-05-07T11:09:58.789Z,49.76
2019-05-07T11:10:59.287Z,48.85
2019-05-07T11:11:59.807Z,49.45
2019-05-07T11:13:02.119Z,47.83
2019-05-07T11:14:02.991Z,48.06
2019-05-07T11:15:03.449Z,48.26
2019-05-07T11:16:04.004Z,48.24
2019-05-07T11:17:04.464Z,47.31
2019-05-07T11:18:04.998Z,47.31
2019-05-07T11:19:05.507Z,47.49
2019-05-07T11:20:06.088Z,47.59
2019-05-07T11:21:06.605Z,47.41
2019-05-07T11:22:07.123Z,47.23
2019-05-07T11:23:12.572Z,48.34
2019-05-07T11:24:13.096Z,48.65
2019-05-07T11:25:13.541Z,48.57
2019-05-07T11:26:14.004Z,48.59
2019-05-07T11:27:14.446Z,49.19
2019-05-07T11:28:14.966Z,49.50
2019-05-07T11:29:15.407Z,49.38
2019-05-07T11:30:15.874Z,49.50
2019-05-07T11:31:16.318Z,49.78
2019-05-07T11:32:16.809Z,49.27
2019-05-07T11:33:17.268Z,49.25
2019-05-07T11:34:17.765Z,49.45
2019-05-07T11:35:18.256Z,49.25
2019-05-07T11:36:18.785Z,49.15
2019-05-07T11:37:19.247Z,49.45
2019-05-07T11:38:22.303Z,49.58
2019-05-07T11:39:25.252Z,49.07
2019-05-07T11:40:26.790Z,48.39
2019-05-07T11:41:27.278Z,48.82
2019-05-07T11:42:27.835Z,49.32
2019-05-07T11:43:28.360Z,49.42
2019-05-07T11:44:32.100Z,49.24
2019-05-07T11:45:32.690Z,48.43
2019-05-07T11:46:33.187Z,48.74
2019-05-07T11:47:33.663Z,48.25
2019-05-07T11:48:36.313Z,48.63
2019-05-07T11:49:36.932Z,48.86
2019-05-07T11:50:38.420Z,48.96
2019-05-07T11:51:38.868Z,48.48
2019-05-07T11:52:39.358Z,48.78
2019-05-07T11:53:41.793Z,48.88
2019-05-07T11:54:42.442Z,49.16
2019-05-07T11:55:42.880Z,49.80
2019-05-07T11:56:43.372Z,49.90
2019-05-07T11:57:44.511Z,49.06
2019-05-07T11:58:45.172Z,48.55
2019-05-07T11:59:45.642Z,48.55
2019-05-07T12:00:46.169Z,48.74
2019-05-07T12:01:47.673Z,49.02
2019-05-07T12:02:48.639Z,48.18
2019-05-07T12:03:49.601Z,48.21
2019-05-07T12:04:50.103Z,48.71
2019-05-07T12:05:52.498Z,48.74
2019-05-07T12:06:54.010Z,48.33
2019-05-07T12:07:54.450Z,48.74
2019-05-07T12:08:54.962Z,48.94
2019-05-07T12:09:55.433Z,49.22
2019-05-07T12:10:55.975Z,49.14
2019-05-07T12:11:56.417Z,49.44
2019-05-07T12:12:56.907Z,49.65
2019-05-07T12:13:57.489Z,49.75
2019-05-07T12:14:58.360Z,49.55
2019-05-07T12:15:58.853Z,49.24
2019-05-07T12:16:59.405Z,48.96
2019-05-07T12:17:59.877Z,50.08
2019-05-07T12:19:02.268Z,49.29
2019-05-07T12:20:02.849Z,50.00
2019-05-07T12:21:16.728Z,50.20
2019-05-07T12:22:11.977Z,50.20
2019-05-07T12:23:12.635Z,50.31
2019-05-07T12:24:16.270Z,50.28
2019-05-07T12:25:17.054Z,50.08
2019-05-07T12:26:17.502Z,49.47
2019-05-07T12:27:17.997Z,49.59
2019-05-07T12:28:18.490Z,49.08
2019-05-07T12:29:19.077Z,49.37
2019-05-07T12:30:19.522Z,49.37
2019-05-07T12:31:20.051Z,49.27
2019-05-07T12:32:22.104Z,49.37
2019-05-07T12:33:22.737Z,49.24
2019-05-07T12:34:23.208Z,49.55
2019-05-07T12:35:23.762Z,49.24
2019-05-07T12:36:24.223Z,48.74
2019-05-07T12:37:25.682Z,48.61
2019-05-07T12:38:26.146Z,48.94
2019-05-07T12:39:26.721Z,48.94
2019-05-07T12:40:27.183Z,48.54
2019-05-07T12:41:27.727Z,48.91
2019-05-07T12:42:28.207Z,49.14
2019-05-07T12:43:33.657Z,49.44
2019-05-07T12:44:34.155Z,49.22
2019-05-07T12:45:34.701Z,48.99
2019-05-07T12:46:35.136Z,48.91
2019-05-07T12:47:35.623Z,48.59
2019-05-07T12:48:36.068Z,48.26
2019-05-07T12:49:37.625Z,48.67
2019-05-07T12:50:38.099Z,48.16
2019-05-07T12:51:38.621Z,47.43
2019-05-07T12:52:39.080Z,47.43
2019-05-07T12:53:39.556Z,47.63
2019-05-07T12:54:41.939Z,47.11
2019-05-07T12:55:42.931Z,47.39
2019-05-07T12:56:45.524Z,47.77
2019-05-07T12:57:45.990Z,47.67
2019-05-07T12:58:46.552Z,47.56
2019-05-07T12:59:49.559Z,46.76
2019-05-07T13:00:52.000Z,47.39
2019-05-07T13:01:52.620Z,46.98
2019-05-07T13:02:53.245Z,46.96
2019-05-07T13:03:53.707Z,47.56
2019-05-07T13:04:54.208Z,47.06